createdAt,value
2022-11-16T00:01:03.692Z,94.24
2022-11-16T00:04:06.331Z,94.26
2022-11-16T00:07:08.796Z,94.25
2022-11-16T00:10:12.053Z,94.31
2022-11-16T00:13:14.419Z,94.09
2022-11-16T00:16:18.204Z,94.24
2022-11-16T00:19:20.534Z,94.20
2022-11-16T00:22:23.093Z,94.20
2022-11-16T00:25:25.332Z,94.49
2022-11-16T00:28:28.504Z,94.36
2022-11-16T00:31:31.174Z,94.49
2022-11-16T00:34:33.891Z,94.42
2022-11-16T00:37:36.353Z,94.65
2022-11-16T00:40:38.900Z,94.62
2022-11-16T00:43:41.234Z,94.56
2022-11-16T00:46:44.200Z,94.77
2022-11-16T00:49:46.395Z,94.89
2022-11-16T00:52:48.902Z,94.90
2022-11-16T00:55:51.127Z,94.97
2022-11-16T00:58:54.512Z,94.87
2022-11-16T01:01:56.881Z,94.94
2022-11-16T01:04:59.414Z,94.96
2022-11-16T01:08:01.698Z,95.18
2022-11-16T01:11:25.950Z,95.33
2022-11-16T01:14:28.231Z,95.24
2022-11-16T01:17:30.772Z,95.29
2022-11-16T01:20:32.987Z,95.17
2022-11-16T01:23:35.600Z,95.04
2022-11-16T01:26:37.985Z,95.02
2022-11-16T01:29:41.211Z,95.05
2022-11-16T01:32:44.012Z,95.02
2022-11-16T01:35:46.907Z,95.14
2022-11-16T01:38:50.695Z,95.15
2022-11-16T01:41:53.689Z,95.10
2022-11-16T01:45:43.989Z,95.07
2022-11-16T01:48:52.842Z,95.27
2022-11-16T01:52:03.050Z,95.22
2022-11-16T01:55:07.128Z,95.06
2022-11-16T01:58:17.372Z,95.13
2022-11-16T02:01:20.786Z,95.37
2022-11-16T02:04:24.072Z,95.29
2022-11-16T02:07:57.716Z,95.21
2022-11-16T02:11:21.752Z,95.09
2022-11-16T02:14:42.334Z,95.16
2022-11-16T02:17:45.745Z,95.09
2022-11-16T02:21:06.935Z,95.15
2022-11-16T02:24:23.294Z,95.12
2022-11-16T02:27:44.717Z,95.01
2022-11-16T02:30:50.708Z,95.39
2022-11-16T02:33:56.198Z,95.49
2022-11-16T02:37:01.667Z,95.37
2022-11-16T02:40:07.959Z,95.19
2022-11-16T02:43:15.518Z,95.18
2022-11-16T02:46:29.606Z,94.98
2022-11-16T02:49:36.438Z,95.02
2022-11-16T02:52:39.004Z,94.78
2022-11-16T02:55:41.707Z,94.95
2022-11-16T02:58:44.334Z,94.97
2022-11-16T03:02:17.086Z,94.83
2022-11-16T03:05:32.120Z,94.92
2022-11-16T03:08:39.998Z,94.78
2022-11-16T03:12:00.205Z,94.71
2022-11-16T03:15:06.042Z,94.79
2022-11-16T03:18:09.108Z,94.65
2022-11-16T03:21:18.308Z,94.66
2022-11-16T03:24:20.858Z,94.88
2022-11-16T03:27:47.823Z,94.88
2022-11-16T03:30:56.192Z,94.85
2022-11-16T03:34:03.850Z,94.77
2022-11-16T03:37:06.543Z,94.83
2022-11-16T03:40:12.705Z,94.67
2022-11-16T03:43:15.888Z,94.64
2022-11-16T03:46:18.842Z,94.71
2022-11-16T03:49:22.946Z,94.87
2022-11-16T03:52:26.843Z,94.91
2022-11-16T03:55:29.165Z,94.86
2022-11-16T03:58:32.126Z,94.88
2022-11-16T04:01:34.797Z,94.71
2022-11-16T04:04:56.650Z,94.74
2022-11-16T04:08:17.770Z,94.91
2022-11-16T04:11:40.931Z,95.05
2022-11-16T04:15:02.911Z,94.85
2022-11-16T04:18:24.532Z,94.96
2022-11-16T04:21:50.261Z,94.91
2022-11-16T04:25:00.598Z,94.83
2022-11-16T04:28:13.305Z,94.59
2022-11-16T04:31:34.706Z,94.53
2022-11-16T04:34:56.034Z,94.63
2022-11-16T04:37:59.826Z,94.72
2022-11-16T04:41:02.725Z,94.67
2022-11-16T04:44:05.534Z,94.90
2022-11-16T04:47:09.621Z,94.96
2022-11-16T04:50:12.693Z,94.94
2022-11-16T04:53:15.889Z,94.78
2022-11-16T04:56:19.038Z,94.82
2022-11-16T04:59:22.334Z,94.92
2022-11-16T05:02:25.589Z,94.85
2022-11-16T05:05:28.379Z,94.88
2022-11-16T05:08:31.690Z,94.82
2022-11-16T05:11:34.872Z,94.91
2022-11-16T05:14:38.211Z,95.11
2022-11-16T05:17:40.659Z,95.03
2022-11-16T05:21:02.733Z,95.06
2022-11-16T05:24:24.331Z,94.91
2022-11-16T05:27:28.967Z,94.96
2022-11-16T05:30:31.228Z,95.02
2022-11-16T05:33:34.288Z,95.15
2022-11-16T05:36:37.058Z,95.31
2022-11-16T05:39:40.144Z,95.39
2022-11-16T05:42:42.477Z,95.49
2022-11-16T05:45:45.315Z,95.57
2022-11-16T05:48:49.690Z,95.67
2022-11-16T05:51:52.669Z,95.81
2022-11-16T05:54:55.062Z,95.74
2022-11-16T05:57:57.942Z,95.81
2022-11-16T06:01:00.304Z,95.87
2022-11-16T06:04:03.159Z,95.86
2022-11-16T06:07:05.893Z,95.76
2022-11-16T06:10:10.005Z,95.93
2022-11-16T06:13:13.643Z,95.91
2022-11-16T06:16:16.731Z,95.94
2022-11-16T06:19:18.973Z,95.97
2022-11-16T06:22:21.786Z,96.26
2022-11-16T06:25:24.151Z,96.23
2022-11-16T06:28:27.714Z,96.37
2022-11-16T06:31:30.229Z,96.49
2022-11-16T06:34:33.971Z,96.55
2022-11-16T06:37:37.508Z,96.63
2022-11-16T06:40:40.659Z,96.62
2022-11-16T06:43:43.291Z,96.61
2022-11-16T06:46:46.248Z,96.86
2022-11-16T06:49:48.865Z,96.61
2022-11-16T06:52:52.150Z,96.41
2022-11-16T06:55:55.470Z,96.03
2022-11-16T06:58:58.251Z,96.17
2022-11-16T07:02:00.932Z,95.88
2022-11-16T07:05:04.997Z,95.99
2022-11-16T07:08:08.124Z,96.07
2022-11-16T07:11:11.315Z,95.90
2022-11-16T07:14:13.944Z,96.02
2022-11-16T07:17:16.823Z,96.06
2022-11-16T07:20:19.435Z,95.98
2022-11-16T07:23:22.673Z,95.77
2022-11-16T07:26:25.438Z,95.65
2022-11-16T07:29:28.656Z,95.64
2022-11-16T07:32:35.954Z,95.58
2022-11-16T07:35:39.348Z,95.48
2022-11-16T07:38:41.896Z,95.44
2022-11-16T07:41:45.252Z,95.55
2022-11-16T07:44:48.772Z,95.55
2022-11-16T07:47:53.385Z,95.14
2022-11-16T07:51:06.043Z,95.23
2022-11-16T07:54:14.575Z,95.27
2022-11-16T07:57:17.406Z,95.01
2022-11-16T08:00:20.106Z,95.02
2022-11-16T08:03:24.893Z,95.15
2022-11-16T08:06:30.140Z,95.00
2022-11-16T08:09:34.805Z,94.95
2022-11-16T08:12:37.494Z,95.00
2022-11-16T08:15:41.081Z,95.03
2022-11-16T08:18:45.000Z,94.94
2022-11-16T08:21:48.495Z,94.92
2022-11-16T08:24:51.043Z,94.91
2022-11-16T08:27:54.848Z,94.80
2022-11-16T08:30:59.321Z,94.89
2022-11-16T08:34:01.969Z,94.95
2022-11-16T08:37:04.550Z,94.84
2022-11-16T08:40:08.669Z,94.85
2022-11-16T08:43:11.489Z,94.79
2022-11-16T08:46:14.644Z,94.79
2022-11-16T08:49:18.494Z,94.97
2022-11-16T08:52:21.745Z,94.87
2022-11-16T08:55:25.156Z,94.87
2022-11-16T08:58:27.943Z,94.69
2022-11-16T09:01:31.457Z,94.60
2022-11-16T09:04:36.999Z,94.58
2022-11-16T09:07:40.720Z,94.68
2022-11-16T09:10:43.402Z,94.52
2022-11-16T09:13:47.385Z,94.46
2022-11-16T09:16:49.906Z,94.38
2022-11-16T09:19:52.209Z,94.49
2022-11-16T09:22:54.716Z,94.70
2022-11-16T09:26:01.568Z,94.53
2022-11-16T09:29:04.473Z,94.34
2022-11-16T09:32:06.938Z,94.20
2022-11-16T09:35:09.891Z,93.85
2022-11-16T09:38:16.159Z,94.00
2022-11-16T09:42:08.406Z,94.05
2022-11-16T09:45:45.799Z,93.92
2022-11-16T09:48:50.111Z,93.98
2022-11-16T09:52:00.574Z,93.85
2022-11-16T09:55:26.403Z,93.77
2022-11-16T09:58:35.128Z,93.72
2022-11-16T10:01:50.321Z,93.59
2022-11-16T10:05:02.961Z,93.57
2022-11-16T10:08:18.685Z,93.99
2022-11-16T10:11:33.412Z,93.77
2022-11-16T10:14:52.092Z,93.79
2022-11-16T10:18:29.678Z,93.64
2022-11-16T10:21:50.089Z,93.57
2022-11-16T10:25:16.618Z,93.39
2022-11-16T10:28:21.891Z,93.72
2022-11-16T10:31:37.726Z,93.63
2022-11-16T10:35:17.027Z,93.44
2022-11-16T10:38:28.372Z,93.66
2022-11-16T10:41:40.180Z,93.82
2022-11-16T10:44:51.716Z,93.77
2022-11-16T10:48:07.862Z,93.50
2022-11-16T10:51:10.690Z,93.39
2022-11-16T10:54:14.269Z,93.41
2022-11-16T10:57:17.933Z,93.53
2022-11-16T11:00:46.882Z,93.59
2022-11-16T11:03:50.827Z,93.62
2022-11-16T11:07:23.335Z,93.44
2022-11-16T11:10:33.526Z,93.27
2022-11-16T11:13:35.975Z,93.22
2022-11-16T11:16:41.390Z,93.12
2022-11-16T11:19:43.648Z,93.03
2022-11-16T11:22:56.241Z,92.83
2022-11-16T11:26:00.489Z,92.96
2022-11-16T11:29:25.069Z,93.03
2022-11-16T11:32:34.278Z,93.01
2022-11-16T11:35:36.982Z,92.99
2022-11-16T11:39:15.952Z,92.96
2022-11-16T11:42:23.288Z,93.01
2022-11-16T11:45:32.517Z,92.84
2022-11-16T11:48:57.749Z,92.83
2022-11-16T11:52:17.322Z,92.87
2022-11-16T11:55:19.918Z,93.16
2022-11-16T11:58:26.391Z,93.12
2022-11-16T12:02:08.089Z,93.07
2022-11-16T12:05:28.346Z,92.99
2022-11-16T12:08:30.496Z,92.69
2022-11-16T12:11:45.403Z,92.68
2022-11-16T12:15:13.591Z,92.79
2022-11-16T12:18:34.648Z,92.96
2022-11-16T12:21:58.490Z,93.10
2022-11-16T12:25:27.373Z,93.25
2022-11-16T12:28:51.692Z,93.31
2022-11-16T12:32:03.077Z,93.46
2022-11-16T12:35:33.664Z,93.53
2022-11-16T12:39:01.056Z,93.58
2022-11-16T12:42:40.536Z,93.69
2022-11-16T12:46:05.010Z,93.56
2022-11-16T12:49:31.844Z,93.65
2022-11-16T12:52:50.169Z,93.42
2022-11-16T12:56:27.618Z,93.65
2022-11-16T12:59:33.077Z,93.65
2022-11-16T13:02:41.041Z,93.47
2022-11-16T13:05:56.062Z,93.47
2022-11-16T13:09:11.116Z,93.56
2022-11-16T13:12:17.416Z,93.72
2022-11-16T13:15:22.376Z,93.75
2022-11-16T13:18:26.589Z,93.82
2022-11-16T13:21:47.860Z,94.12
2022-11-16T13:25:20.225Z,93.94
2022-11-16T13:28:33.637Z,93.92
2022-11-16T13:31:48.451Z,93.77
2022-11-16T13:34:52.396Z,93.97
2022-11-16T13:37:55.054Z,93.95
2022-11-16T13:41:46.267Z,94.10
2022-11-16T13:44:51.525Z,94.24
2022-11-16T13:47:56.830Z,94.47
2022-11-16T13:51:05.975Z,94.61
2022-11-16T13:57:36.431Z,94.93
2022-11-16T14:00:40.694Z,94.98
2022-11-16T14:03:45.948Z,95.06
2022-11-16T14:06:48.202Z,95.13
2022-11-16T14:09:50.809Z,95.20
2022-11-16T14:12:57.157Z,95.24
2022-11-16T14:16:15.001Z,95.24
2022-11-16T14:19:49.143Z,95.28
2022-11-16T14:23:01.163Z,95.23
2022-11-16T14:26:17.226Z,95.22
2022-11-16T14:29:39.995Z,95.41
2022-11-16T14:32:52.423Z,95.26
2022-11-16T14:35:55.076Z,95.39
2022-11-16T14:39:19.887Z,95.44
2022-11-16T14:42:38.160Z,95.33
2022-11-16T14:46:09.378Z,95.35
2022-11-16T14:49:16.134Z,95.41
2022-11-16T14:52:25.531Z,95.62
2022-11-16T14:55:28.766Z,95.54
2022-11-16T14:58:30.978Z,95.43
2022-11-16T15:01:37.033Z,95.38
2022-11-16T15:04:39.426Z,95.30
2022-11-16T15:07:43.173Z,95.26
2022-11-16T15:10:52.146Z,95.21
2022-11-16T15:13:55.644Z,95.27
2022-11-16T15:16:59.569Z,95.19
2022-11-16T15:20:14.206Z,95.27
2022-11-16T15:23:17.383Z,95.18
2022-11-16T15:26:23.893Z,95.24
2022-11-16T15:29:26.189Z,95.05
2022-11-16T15:32:28.849Z,95.30
2022-11-16T15:35:32.797Z,95.31
2022-11-16T15:38:37.587Z,95.36
2022-11-16T15:41:40.382Z,95.36
2022-11-16T15:44:44.114Z,95.32
2022-11-16T15:47:47.415Z,95.42
2022-11-16T15:51:20.063Z,95.45
2022-11-16T15:54:26.604Z,95.56
2022-11-16T15:57:29.224Z,95.57
2022-11-16T16:00:35.142Z,95.49
2022-11-16T16:03:38.653Z,95.53
2022-11-16T16:06:57.231Z,95.34
2022-11-16T16:10:24.389Z,95.40
2022-11-16T16:13:48.490Z,95.60
2022-11-16T16:16:57.265Z,95.56
2022-11-16T16:20:05.694Z,95.66
2022-11-16T16:23:12.846Z,95.69
2022-11-16T16:26:16.667Z,95.88
2022-11-16T16:29:19.204Z,95.76
2022-11-16T16:32:36.916Z,95.90
2022-11-16T16:35:39.475Z,95.82
2022-11-16T16:38:41.697Z,95.83
2022-11-16T16:41:44.505Z,95.90
2022-11-16T16:44:48.013Z,95.80
2022-11-16T16:47:50.576Z,95.62
2022-11-16T16:50:52.838Z,95.47
2022-11-16T16:53:55.410Z,95.53
2022-11-16T16:56:58.073Z,95.46
2022-11-16T17:00:00.726Z,95.37
2022-11-16T17:03:03.036Z,95.40
2022-11-16T17:06:05.838Z,95.46
2022-11-16T17:09:08.080Z,95.43
2022-11-16T17:12:11.115Z,95.43
2022-11-16T17:15:19.046Z,95.37
2022-11-16T17:18:22.644Z,95.45
2022-11-16T17:21:24.938Z,95.57
2022-11-16T17:24:27.476Z,95.58
2022-11-16T17:27:30.735Z,95.76
2022-11-16T17:30:33.222Z,95.76
2022-11-16T17:33:40.302Z,95.80
2022-11-16T17:36:43.303Z,95.87
2022-11-16T17:39:45.524Z,95.94
2022-11-16T17:42:49.596Z,96.02
2022-11-16T17:45:51.977Z,95.84
2022-11-16T17:48:54.741Z,95.80
2022-11-16T17:51:57.284Z,95.88
2022-11-16T17:54:59.835Z,95.84
2022-11-16T17:58:02.469Z,95.81
2022-11-16T18:01:05.371Z,95.69
2022-11-16T18:04:08.175Z,95.59
2022-11-16T18:07:10.677Z,95.58
2022-11-16T18:10:17.950Z,95.69
2022-11-16T18:13:21.805Z,95.52
2022-11-16T18:16:27.627Z,95.37
2022-11-16T18:19:29.955Z,95.26
2022-11-16T18:22:32.658Z,95.04
2022-11-16T18:25:36.888Z,94.92
2022-11-16T18:28:41.182Z,95.07
2022-11-16T18:31:43.697Z,94.93
2022-11-16T18:34:46.591Z,95.01
2022-11-16T18:37:48.909Z,94.99
2022-11-16T18:41:04.483Z,95.01
2022-11-16T18:44:07.932Z,94.98
2022-11-16T18:47:10.544Z,95.06
2022-11-16T18:50:19.009Z,94.95
2022-11-16T18:53:24.013Z,94.95
2022-11-16T18:56:27.237Z,95.01
2022-11-16T18:59:29.835Z,94.92
2022-11-16T19:02:32.168Z,95.03
2022-11-16T19:05:34.777Z,94.84
2022-11-16T19:08:38.650Z,94.99
2022-11-16T19:11:41.375Z,94.98
2022-11-16T19:14:43.623Z,95.04
2022-11-16T19:18:14.233Z,95.25
2022-11-16T19:21:11.051Z,95.07
2022-11-16T19:24:13.667Z,95.12
2022-11-16T19:27:16.735Z,95.04
2022-11-16T19:30:19.530Z,95.02
2022-11-16T19:33:21.790Z,94.86
2022-11-16T19:36:25.557Z,94.79
2022-11-16T19:39:27.832Z,94.60
2022-11-16T19:42:30.636Z,94.53
2022-11-16T19:45:32.835Z,94.49
2022-11-16T19:48:38.337Z,94.23
2022-11-16T19:51:40.586Z,94.28
2022-11-16T19:54:43.065Z,94.35
2022-11-16T19:57:45.478Z,94.29
2022-11-16T20:00:48.110Z,94.32
2022-11-16T20:03:51.058Z,94.49
2022-11-16T20:06:53.356Z,94.54
2022-11-16T20:09:56.012Z,94.67
2022-11-16T20:13:01.089Z,94.70
2022-11-16T20:16:03.681Z,94.59
2022-11-16T20:19:07.058Z,94.55
2022-11-16T20:22:09.657Z,94.63
2022-11-16T20:25:11.914Z,94.63
2022-11-16T20:28:14.418Z,94.56
2022-11-16T20:31:21.937Z,94.38
2022-11-16T20:34:24.977Z,94.37
2022-11-16T20:37:27.219Z,94.25
2022-11-16T20:40:29.877Z,94.09
2022-11-16T20:43:32.384Z,93.95
2022-11-16T20:46:36.724Z,93.83
2022-11-16T20:49:39.011Z,93.74
2022-11-16T20:52:44.306Z,93.56
2022-11-16T20:55:49.978Z,93.37
2022-11-16T20:58:52.556Z,93.01
2022-11-16T21:01:55.297Z,93.00
2022-11-16T21:05:00.501Z,92.96
2022-11-16T21:08:02.923Z,93.05
2022-11-16T21:11:13.656Z,92.71
2022-11-16T21:14:15.887Z,92.75
2022-11-16T21:17:18.680Z,92.57
2022-11-16T21:20:27.347Z,92.46
2022-11-16T21:23:32.479Z,92.32
2022-11-16T21:26:35.535Z,92.13
2022-11-16T21:29:38.065Z,91.66
2022-11-16T21:32:40.363Z,91.42
2022-11-16T21:35:42.808Z,91.62
2022-11-16T21:38:46.021Z,91.71
2022-11-16T21:41:48.646Z,91.82
2022-11-16T21:44:51.011Z,92.08
2022-11-16T21:47:53.620Z,92.14
2022-11-16T21:51:16.513Z,91.83
2022-11-16T21:54:19.235Z,91.81
2022-11-16T21:57:21.836Z,91.60
2022-11-16T22:00:25.398Z,91.19
2022-11-16T22:03:29.872Z,90.79
2022-11-16T22:06:50.592Z,90.70
2022-11-16T22:09:53.217Z,90.36
2022-11-16T22:12:55.424Z,90.40
2022-11-16T22:15:57.953Z,90.40
2022-11-16T22:19:00.322Z,89.98
2022-11-16T22:22:03.054Z,90.44
2022-11-16T22:25:05.974Z,90.33
2022-11-16T22:28:23.964Z,90.30
2022-11-16T22:31:26.265Z,90.31
2022-11-16T22:34:28.769Z,90.10
2022-11-16T22:37:31.417Z,90.28
2022-11-16T22:40:33.984Z,90.08
2022-11-16T22:43:37.388Z,90.31
2022-11-16T22:46:41.043Z,90.22
2022-11-16T22:49:43.291Z,89.48
2022-11-16T22:52:45.944Z,89.37
2022-11-16T22:55:48.145Z,89.73
2022-11-16T22:58:50.645Z,89.41
2022-11-16T23:01:52.942Z,89.15
2022-11-16T23:04:55.419Z,89.09
2022-11-16T23:07:57.838Z,89.25
2022-11-16T23:11:19.956Z,89.03
2022-11-16T23:14:41.126Z,88.61
2022-11-16T23:17:45.374Z,88.42
2022-11-16T23:21:06.062Z,88.58
2022-11-16T23:24:31.550Z,88.73
2022-11-16T23:27:51.477Z,88.71
2022-11-16T23:30:54.026Z,88.42
2022-11-16T23:33:56.273Z,88.34
2022-11-16T23:37:03.345Z,88.49
2022-11-16T23:40:06.082Z,87.83
2022-11-16T23:43:28.876Z,88.30
2022-11-16T23:46:32.432Z,87.61
2022-11-16T23:49:34.965Z,88.07
2022-11-16T23:52:37.203Z,88.58
2022-11-16T23:55:40.181Z,88.20
2022-11-16T23:58:42.435Z,88.53
